Time;durP1;ratioP1;P1;durP2;ratioP2;P2;SDS_P1;SDS_P2;PMS_P1;PMS_P2;Temp;Humidity;BMP_temperature;BMP_pressure;BME280_temperature;BME280_humidity;BME280_pressure;Samples;Min_cycle;Max_cycle;Signal;HPM_P1;HPM_P2
2023/06/21 06:12:45;;;;;;;;;;;18.10;81.10;;;;;;6181254;23;19919;-95
2023/06/21 06:38:18;;;;;;;;;;;18.60;79.80;;;;;;6095041;23;19958;-96
2023/06/21 06:44:37;;;;;;;;;;;18.60;78.50;;;;;;6045102;23;19925;-96
2023/06/21 06:50:41;;;;;;;;;;;18.60;79.00;;;;;;5922905;24;19921;-94
2023/06/21 07:38:45;;;;;;;;;;;;;;;;;;;;;
2023/06/21 07:41:40;;;;;;;;;;;19.40;74.70;;;;;;6280158;22;20288;-96
2023/06/21 08:18:47;;;;;;;;;;;20.00;74.70;;;;;;5849852;24;19930;-96
2023/06/21 08:42:31;;;;;;;;;;;20.50;72.30;;;;;;6224461;23;19950;-95
2023/06/21 08:48:24;;;;;;;;;;;20.50;71.60;;;;;;6155228;23;19927;-96
2023/06/21 08:54:33;;;;;;;;;;;;;;;;;;;;;
2023/06/21 08:57:20;;;;;;;;;;;20.70;70.70;;;;;;6156583;23;19920;-96
2023/06/21 09:06:26;;;;;;;;;;;20.80;70.20;;;;;;6163564;23;19920;-96
2023/06/21 09:12:37;;;;;;;;;;;20.90;70.40;;;;;;6019564;23;19923;-96
2023/06/21 09:15:51;;;;;;;;;;;21.00;71.10;;;;;;6047104;23;19970;-96
2023/06/21 09:18:35;;;;;;;;;;;21.10;70.50;;;;;;6013887;23;19926;-96
2023/06/21 09:21:36;;;;;;;;;;;21.10;69.90;;;;;;5970189;23;20354;-96
2023/06/21 09:24:22;;;;;;;;;;;21.10;68.60;;;;;;5897654;24;19924;-95
2023/06/21 09:26:51;;;;;;;;;;;21.10;69.20;;;;;;5876557;24;20399;-96
2023/06/21 09:29:19;;;;;;;;;;;21.20;68.40;;;;;;5916523;24;19974;-95
2023/06/21 09:35:32;;;;;;;;;;;21.30;69.70;;;;;;5983547;24;20039;-96
2023/06/21 09:41:34;;;;;;;;;;;21.50;69.20;;;;;;5955511;24;19918;-95
2023/06/21 09:44:47;;;;;;;;;;;;;;;;;;;;;
2023/06/21 09:51:24;;;;;;;;;;;21.70;68.40;;;;;;5860428;24;20418;-96
2023/06/21 10:00:42;;;;;;;;;;;21.80;68.10;;;;;;5963354;23;19913;-96
2023/06/21 10:03:47;;;;;;;;;;;;;;;;;;;;;
2023/06/21 10:15:53;;;;;;;;;;;22.30;67.90;;;;;;5981677;23;19923;-96
2023/06/21 10:22:15;;;;;;;;;;;22.40;67.10;;;;;;5918464;24;20316;-96
2023/06/21 10:25:25;;;;;;;;;;;;;;;;;;;;;
2023/06/21 10:28:45;;;;;;;;;;;22.20;66.50;;;;;;5929986;24;20003;-95
2023/06/21 10:31:53;;;;;;;;;;;22.10;67.50;;;;;;5947693;23;19945;-96
2023/06/21 10:37:57;;;;;;;;;;;22.20;68.40;;;;;;6147925;23;19920;-95
2023/06/21 10:40:22;;;;;;;;;;;22.30;67.30;;;;;;6109210;23;20162;-96
2023/06/21 10:42:58;;;;;;;;;;;22.20;67.20;;;;;;6105918;23;20361;-93
2023/06/21 10:45:45;;;;;;;;;;;22.10;66.70;;;;;;6083403;23;19962;-96
2023/06/21 10:48:28;;;;;;;;;;;22.20;67.20;;;;;;6120832;23;19941;-94
2023/06/21 10:51:14;;;;;;;;;;;22.10;66.60;;;;;;6130141;23;20319;-95
2023/06/21 10:54:26;;;;;;;;;;;22.10;65.80;;;;;;6086709;23;19922;-93
2023/06/21 10:57:30;;;;;;;;;;;22.20;66.90;;;;;;6041416;23;19996;-96
2023/06/21 11:01:00;;;;;;;;;;;22.30;66.70;;;;;;6045894;23;19921;-93
2023/06/21 11:09:34;;;;;;;;;;;22.60;66.20;;;;;;6091603;23;19925;-96
2023/06/21 11:19:11;;;;;;;;;;;22.70;66.50;;;;;;5832009;24;19959;-96
2023/06/21 11:22:10;;;;;;;;;;;22.60;66.00;;;;;;5834123;24;19931;-96
2023/06/21 11:37:52;;;;;;;;;;;22.70;66.50;;;;;;5951749;24;19922;-96
2023/06/21 11:40:32;;;;;;;;;;;22.90;66.00;;;;;;5944819;24;19906;-96
2023/06/21 11:43:10;;;;;;;;;;;23.00;65.40;;;;;;5990447;23;19961;-96
2023/06/21 11:57:07;;;;;;;;;;;22.90;65.90;;;;;;5979289;24;20046;-96
2023/06/21 11:59:38;;;;;;;;;;;22.80;66.20;;;;;;5934271;23;19954;-96
2023/06/21 12:02:30;;;;;;;;;;;22.90;67.00;;;;;;6017097;23;19921;-95
2023/06/21 12:05:05;;;;;;;;;;;23.00;65.60;;;;;;6026109;23;19925;-96
2023/06/21 12:08:33;;;;;;;;;;;;;;;;;;;;;
2023/06/21 12:11:06;;;;;;;;;;;23.00;67.10;;;;;;6025161;23;19938;-96
2023/06/21 12:13:43;;;;;;;;;;;23.10;66.20;;;;;;6038879;23;19947;-94
2023/06/21 12:16:12;;;;;;;;;;;23.00;65.70;;;;;;6020153;23;19925;-95
2023/06/21 12:18:40;;;;;;;;;;;23.00;65.70;;;;;;5989884;23;19963;-95
2023/06/21 12:24:33;;;;;;;;;;;22.90;65.90;;;;;;6050711;23;19985;-95
2023/06/21 12:27:08;;;;;;;;;;;22.90;66.00;;;;;;5974758;23;19926;-94
2023/06/21 12:33:43;;;;;;;;;;;22.80;66.20;;;;;;5997063;23;19922;-92
2023/06/21 12:36:18;;;;;;;;;;;22.90;66.00;;;;;;5961207;23;19926;-90
2023/06/21 12:39:28;;;;;;;;;;;22.90;66.80;;;;;;5955861;23;19930;-96
2023/06/21 12:42:19;;;;;;;;;;;23.10;66.70;;;;;;5963372;23;19922;-96
2023/06/21 12:45:17;;;;;;;;;;;23.40;66.30;;;;;;5941467;23;19922;-96
2023/06/21 12:48:16;;;;;;;;;;;23.50;65.50;;;;;;5984630;23;20293;-94
2023/06/21 12:51:14;;;;;;;;;;;23.40;64.70;;;;;;6043406;23;19928;-96
2023/06/21 12:53:41;;;;;;;;;;;23.40;65.40;;;;;;5933017;23;19950;-96
2023/06/21 12:56:44;;;;;;;;;;;23.50;64.70;;;;;;5976895;23;19913;-90
2023/06/21 12:59:28;;;;;;;;;;;23.50;65.00;;;;;;6089692;23;19929;-96
2023/06/21 13:05:57;;;;;;;;;;;23.60;63.20;;;;;;5999237;23;20300;-96
2023/06/21 13:08:55;;;;;;;;;;;23.90;64.80;;;;;;6002035;23;19998;-95
2023/06/21 13:11:49;;;;;;;;;;;24.00;63.00;;;;;;5991517;23;19925;-94
2023/06/21 13:21:30;;;;;;;;;;;24.40;62.90;;;;;;5991349;23;19950;-96
2023/06/21 13:24:30;;;;;;;;;;;24.40;64.10;;;;;;5952443;24;19922;-96
2023/06/21 13:27:37;;;;;;;;;;;24.50;60.30;;;;;;5985003;23;19922;-94
2023/06/21 13:30:20;;;;;;;;;;;24.60;60.60;;;;;;5948815;23;19922;-95
2023/06/21 13:32:52;;;;;;;;;;;24.50;59.70;;;;;;5994730;23;20270;-94
2023/06/21 13:35:38;;;;;;;;;;;24.40;60.30;;;;;;5951323;23;19929;-96
2023/06/21 13:38:21;;;;;;;;;;;24.20;61.50;;;;;;6061747;23;20390;-96
2023/06/21 13:41:13;;;;;;;;;;;24.20;62.30;;;;;;6125733;23;19920;-96
2023/06/21 13:44:24;;;;;;;;;;;24.00;62.50;;;;;;6089621;23;20236;-96
2023/06/21 13:47:27;;;;;;;;;;;23.90;63.10;;;;;;6057953;23;20619;-95
2023/06/21 13:56:55;;;;;;;;;;;23.60;64.70;;;;;;5961367;23;19918;-94
2023/06/21 13:59:40;;;;;;;;;;;23.50;65.50;;;;;;5987162;23;19970;-94
2023/06/21 14:02:05;;;;;;;;;;;23.50;66.20;;;;;;6052139;23;19922;-94
2023/06/21 14:07:35;;;;;;;;;;;;;;;;;;;;;
2023/06/21 14:10:24;;;;;;;;;;;23.60;65.30;;;;;;6045206;23;19946;-95
2023/06/21 14:13:31;;;;;;;;;;;23.60;64.80;;;;;;6041637;23;19956;-95
2023/06/21 14:19:13;;;;;;;;;;;23.50;65.60;;;;;;6084141;23;20018;-95
2023/06/21 14:25:39;;;;;;;;;;;;;;;;;;;;;
2023/06/21 14:31:03;;;;;;;;;;;23.70;65.00;;;;;;6161701;23;19927;-93
2023/06/21 14:37:11;;;;;;;;;;;24.00;63.90;;;;;;6146437;23;19911;-95
2023/06/21 14:39:46;;;;;;;;;;;24.10;63.60;;;;;;6124227;23;19920;-96
2023/06/21 14:42:40;;;;;;;;;;;24.00;64.10;;;;;;6091528;23;19921;-96
2023/06/21 14:45:22;;;;;;;;;;;24.20;63.10;;;;;;6121652;23;19927;-94
2023/06/21 14:54:16;;;;;;;;;;;24.20;62.80;;;;;;5949684;23;19948;-96
2023/06/21 14:56:53;;;;;;;;;;;24.20;64.20;;;;;;6003826;23;19975;-93
2023/06/21 14:59:30;;;;;;;;;;;24.40;63.40;;;;;;5961009;23;19928;-93
2023/06/21 15:02:09;;;;;;;;;;;24.50;61.80;;;;;;5962322;23;19922;-94
2023/06/21 15:04:35;;;;;;;;;;;24.40;62.10;;;;;;6027503;23;19926;-93
2023/06/21 15:07:30;;;;;;;;;;;24.40;62.80;;;;;;6056647;23;19921;-95
2023/06/21 15:10:08;;;;;;;;;;;24.40;63.30;;;;;;5989105;23;19965;-93
2023/06/21 15:12:34;;;;;;;;;;;24.40;61.50;;;;;;6063543;23;19960;-94
2023/06/21 15:15:00;;;;;;;;;;;24.50;62.60;;;;;;6019040;23;19921;-92
2023/06/21 15:17:28;;;;;;;;;;;24.60;62.30;;;;;;6012569;23;20043;-95
2023/06/21 15:20:17;;;;;;;;;;;24.60;61.90;;;;;;6041766;23;19929;-95
2023/06/21 15:22:48;;;;;;;;;;;24.60;61.40;;;;;;6022549;23;19968;-93
2023/06/21 15:25:14;;;;;;;;;;;24.60;60.50;;;;;;6056029;23;20353;-94
2023/06/21 15:27:40;;;;;;;;;;;24.40;61.60;;;;;;5986543;23;19937;-94
2023/06/21 15:30:06;;;;;;;;;;;24.40;60.80;;;;;;6061679;23;19922;-93
2023/06/21 15:32:32;;;;;;;;;;;24.40;59.60;;;;;;6044274;23;19922;-93
2023/06/21 15:38:21;;;;;;;;;;;24.50;60.50;;;;;;6017451;23;19980;-94
2023/06/21 15:40:47;;;;;;;;;;;24.60;59.80;;;;;;6021651;23;20246;-94
2023/06/21 15:43:55;;;;;;;;;;;;;;;;;;;;;
2023/06/21 15:46:36;;;;;;;;;;;24.50;58.90;;;;;;6128266;23;19916;-95
2023/06/21 15:49:10;;;;;;;;;;;24.60;59.80;;;;;;6127929;23;20209;-95
2023/06/21 15:51:56;;;;;;;;;;;24.60;58.20;;;;;;6132973;23;19925;-94
2023/06/21 15:54:24;;;;;;;;;;;24.50;59.00;;;;;;6103091;23;19928;-96
2023/06/21 15:56:53;;;;;;;;;;;24.50;57.80;;;;;;6125715;23;20006;-95
2023/06/21 15:59:40;;;;;;;;;;;;;;;;;;;;;
2023/06/21 16:02:24;;;;;;;;;;;24.40;56.90;;;;;;6128424;23;19976;-96
2023/06/21 16:04:50;;;;;;;;;;;24.40;57.80;;;;;;6130023;23;19928;-95
2023/06/21 16:07:16;;;;;;;;;;;24.40;58.20;;;;;;6083718;23;19921;-93
2023/06/21 16:12:34;;;;;;;;;;;24.40;57.80;;;;;;6128628;23;19927;-96
2023/06/21 16:15:34;;;;;;;;;;;24.40;58.60;;;;;;6136302;23;19921;-96
2023/06/21 16:18:20;;;;;;;;;;;24.40;59.20;;;;;;6092299;23;19978;-94
2023/06/21 16:20:49;;;;;;;;;;;24.50;58.00;;;;;;6135058;23;19921;-94
2023/06/21 16:23:56;;;;;;;;;;;24.50;58.30;;;;;;6131525;23;19920;-96
2023/06/21 16:26:39;;;;;;;;;;;24.40;58.10;;;;;;6123056;23;19996;-95
2023/06/21 16:29:32;;;;;;;;;;;24.40;59.10;;;;;;6131932;23;19924;-96
2023/06/21 16:32:45;;;;;;;;;;;24.40;59.80;;;;;;6161927;23;19911;-96
2023/06/21 16:35:11;;;;;;;;;;;24.40;59.60;;;;;;6071482;23;19926;-96
2023/06/21 16:37:37;;;;;;;;;;;24.40;59.70;;;;;;6091174;23;20356;-96
2023/06/21 16:43:25;;;;;;;;;;;24.30;60.70;;;;;;6165997;22;19939;-93
2023/06/21 16:48:56;;;;;;;;;;;24.30;60.20;;;;;;6136542;23;19991;-91
2023/06/21 16:51:38;;;;;;;;;;;24.30;59.20;;;;;;6135791;23;19955;-93
2023/06/21 16:54:07;;;;;;;;;;;24.40;60.40;;;;;;6134104;23;19920;-93
2023/06/21 16:56:35;;;;;;;;;;;24.30;58.70;;;;;;6130266;23;19975;-93
2023/06/21 16:59:02;;;;;;;;;;;24.20;59.30;;;;;;6119988;23;19920;-91
2023/06/21 17:04:41;;;;;;;;;;;24.20;59.10;;;;;;6142207;23;19959;-93
2023/06/21 17:07:07;;;;;;;;;;;24.20;59.90;;;;;;6173298;23;19916;-91
2023/06/21 17:09:50;;;;;;;;;;;24.10;59.20;;;;;;6133826;23;19924;-95
2023/06/21 17:15:38;;;;;;;;;;;24.20;60.60;;;;;;6049515;23;19951;-95
2023/06/21 17:18:06;;;;;;;;;;;24.00;59.10;;;;;;6087451;23;19924;-94
2023/06/21 17:20:40;;;;;;;;;;;23.80;59.70;;;;;;6136304;23;19921;-95
2023/06/21 17:23:06;;;;;;;;;;;23.60;60.20;;;;;;6111743;23;20209;-96
2023/06/21 17:25:52;;;;;;;;;;;23.60;61.50;;;;;;6112042;23;19920;-95
2023/06/21 17:28:38;;;;;;;;;;;23.60;61.90;;;;;;6091138;23;19953;-96
2023/06/21 17:31:04;;;;;;;;;;;23.60;61.60;;;;;;6132248;23;20434;-95
2023/06/21 17:33:53;;;;;;;;;;;23.50;61.50;;;;;;6135696;23;19920;-94
2023/06/21 17:36:19;;;;;;;;;;;23.40;61.30;;;;;;6134069;23;19951;-94
2023/06/21 17:38:45;;;;;;;;;;;23.40;61.30;;;;;;6132615;23;19924;-95
2023/06/21 17:41:13;;;;;;;;;;;23.30;61.20;;;;;;6138401;23;20343;-95
2023/06/21 17:43:43;;;;;;;;;;;23.30;61.70;;;;;;6155338;23;20375;-95
2023/06/21 17:46:08;;;;;;;;;;;23.20;61.30;;;;;;6165014;23;19993;-93
2023/06/21 17:48:43;;;;;;;;;;;23.10;61.40;;;;;;6132811;23;19924;-94
2023/06/21 17:51:24;;;;;;;;;;;23.00;61.50;;;;;;6166008;23;19920;-93
2023/06/21 17:54:00;;;;;;;;;;;22.90;61.50;;;;;;6150214;23;19923;-93
2023/06/21 17:56:32;;;;;;;;;;;22.80;62.00;;;;;;6162074;23;19955;-95
2023/06/21 17:59:01;;;;;;;;;;;22.70;62.40;;;;;;6161032;23;19920;-95
2023/06/21 18:01:30;;;;;;;;;;;22.70;62.90;;;;;;6164894;23;20197;-93
